sensor_id;sensor_type;location;lat;lon;timestamp;P1;durP1;ratioP1;P2;durP2;ratioP2
41946;SDS011;27638;42.184;24.848;2023-03-24T00:00:18;25.60;;;16.17;;
41946;SDS011;27638;42.184;24.848;2023-03-24T00:02:46;24.92;;;16.50;;
41946;SDS011;27638;42.184;24.848;2023-03-24T00:05:19;26.05;;;15.93;;
41946;SDS011;27638;42.184;24.848;2023-03-24T00:07:45;26.88;;;16.27;;
41946;SDS011;27638;42.184;24.848;2023-03-24T00:10:13;29.23;;;17.42;;
41946;SDS011;27638;42.184;24.848;2023-03-24T00:12:42;27.67;;;16.13;;
41946;SDS011;27638;42.184;24.848;2023-03-24T00:15:12;29.75;;;16.15;;
41946;SDS011;27638;42.184;24.848;2023-03-24T00:17:46;25.73;;;16.58;;
41946;SDS011;27638;42.184;24.848;2023-03-24T00:20:14;23.23;;;15.90;;
41946;SDS011;27638;42.184;24.848;2023-03-24T00:22:45;29.45;;;19.15;;
41946;SDS011;27638;42.184;24.848;2023-03-24T00:25:13;30.25;;;17.23;;
41946;SDS011;27638;42.184;24.848;2023-03-24T00:27:39;24.45;;;15.35;;
41946;SDS011;27638;42.184;24.848;2023-03-24T00:30:05;28.17;;;16.65;;
41946;SDS011;27638;42.184;24.848;2023-03-24T00:32:33;25.77;;;14.77;;
41946;SDS011;27638;42.184;24.848;2023-03-24T00:35:01;25.95;;;16.73;;
41946;SDS011;27638;42.184;24.848;2023-03-24T00:37:28;26.33;;;15.95;;
41946;SDS011;27638;42.184;24.848;2023-03-24T00:39:54;25.58;;;15.25;;
41946;SDS011;27638;42.184;24.848;2023-03-24T00:42:19;27.60;;;16.58;;
41946;SDS011;27638;42.184;24.848;2023-03-24T00:44:46;29.33;;;16.90;;
41946;SDS011;27638;42.184;24.848;2023-03-24T00:47:11;27.58;;;15.95;;
41946;SDS011;27638;42.184;24.848;2023-03-24T00:49:37;26.00;;;15.35;;
41946;SDS011;27638;42.184;24.848;2023-03-24T00:52:16;31.10;;;16.55;;
41946;SDS011;27638;42.184;24.848;2023-03-24T00:54:47;29.75;;;16.58;;
41946;SDS011;27638;42.184;24.848;2023-03-24T00:57:14;32.72;;;17.92;;
41946;SDS011;27638;42.184;24.848;2023-03-24T00:59:47;27.67;;;16.25;;
41946;SDS011;27638;42.184;24.848;2023-03-24T01:02:18;24.13;;;14.77;;
41946;SDS011;27638;42.184;24.848;2023-03-24T01:04:46;26.20;;;15.95;;
41946;SDS011;27638;42.184;24.848;2023-03-24T01:07:18;28.20;;;16.25;;
41946;SDS011;27638;42.184;24.848;2023-03-24T01:09:45;28.95;;;16.17;;
41946;SDS011;27638;42.184;24.848;2023-03-24T01:12:27;27.98;;;17.25;;
41946;SDS011;27638;42.184;24.848;2023-03-24T01:14:56;24.73;;;15.57;;
41946;SDS011;27638;42.184;24.848;2023-03-24T01:17:23;26.10;;;15.73;;
41946;SDS011;27638;42.184;24.848;2023-03-24T01:19:51;30.92;;;16.95;;
41946;SDS011;27638;42.184;24.848;2023-03-24T01:22:18;30.85;;;17.35;;
41946;SDS011;27638;42.184;24.848;2023-03-24T01:24:45;34.42;;;19.65;;
41946;SDS011;27638;42.184;24.848;2023-03-24T01:27:11;23.88;;;15.07;;
41946;SDS011;27638;42.184;24.848;2023-03-24T01:29:37;20.02;;;12.75;;
41946;SDS011;27638;42.184;24.848;2023-03-24T01:32:03;20.42;;;12.95;;
41946;SDS011;27638;42.184;24.848;2023-03-24T01:34:28;26.85;;;15.52;;
41946;SDS011;27638;42.184;24.848;2023-03-24T01:36:53;29.20;;;16.10;;
41946;SDS011;27638;42.184;24.848;2023-03-24T01:39:19;24.85;;;15.50;;
41946;SDS011;27638;42.184;24.848;2023-03-24T01:41:44;26.95;;;17.10;;
41946;SDS011;27638;42.184;24.848;2023-03-24T01:46:59;17.33;;;11.93;;
41946;SDS011;27638;42.184;24.848;2023-03-24T01:49:28;19.55;;;12.05;;
41946;SDS011;27638;42.184;24.848;2023-03-24T01:51:59;16.75;;;10.95;;
41946;SDS011;27638;42.184;24.848;2023-03-24T01:54:28;13.18;;;9.75;;
41946;SDS011;27638;42.184;24.848;2023-03-24T01:57:02;13.15;;;9.65;;
41946;SDS011;27638;42.184;24.848;2023-03-24T01:59:31;11.60;;;9.15;;
41946;SDS011;27638;42.184;24.848;2023-03-24T02:01:58;11.60;;;8.32;;
41946;SDS011;27638;42.184;24.848;2023-03-24T02:04:38;13.40;;;9.00;;
41946;SDS011;27638;42.184;24.848;2023-03-24T02:07:09;21.20;;;12.85;;
41946;SDS011;27638;42.184;24.848;2023-03-24T02:09:57;18.23;;;12.10;;
41946;SDS011;27638;42.184;24.848;2023-03-24T02:12:23;28.20;;;15.35;;
41946;SDS011;27638;42.184;24.848;2023-03-24T02:14:48;29.83;;;17.40;;
41946;SDS011;27638;42.184;24.848;2023-03-24T02:20:29;27.15;;;16.98;;
41946;SDS011;27638;42.184;24.848;2023-03-24T02:28:38;28.33;;;17.10;;
41946;SDS011;27638;42.184;24.848;2023-03-24T02:34:13;29.85;;;17.35;;
41946;SDS011;27638;42.184;24.848;2023-03-24T02:47:58;31.73;;;17.50;;
41946;SDS011;27638;42.184;24.848;2023-03-24T02:50:31;29.35;;;17.13;;
41946;SDS011;27638;42.184;24.848;2023-03-24T02:53:16;24.83;;;15.88;;
41946;SDS011;27638;42.184;24.848;2023-03-24T02:55:55;27.50;;;15.65;;
41946;SDS011;27638;42.184;24.848;2023-03-24T02:58:36;24.25;;;14.63;;
41946;SDS011;27638;42.184;24.848;2023-03-24T03:03:57;20.83;;;13.38;;
41946;SDS011;27638;42.184;24.848;2023-03-24T03:06:28;18.67;;;12.18;;
41946;SDS011;27638;42.184;24.848;2023-03-24T03:08:57;20.13;;;12.50;;
41946;SDS011;27638;42.184;24.848;2023-03-24T03:11:25;20.17;;;12.13;;
41946;SDS011;27638;42.184;24.848;2023-03-24T03:14:05;19.65;;;12.50;;
41946;SDS011;27638;42.184;24.848;2023-03-24T03:19:04;18.42;;;11.43;;
41946;SDS011;27638;42.184;24.848;2023-03-24T03:21:37;21.00;;;12.75;;
41946;SDS011;27638;42.184;24.848;2023-03-24T03:24:07;18.88;;;12.82;;
41946;SDS011;27638;42.184;24.848;2023-03-24T03:26:35;23.20;;;12.57;;
41946;SDS011;27638;42.184;24.848;2023-03-24T03:29:04;25.45;;;14.07;;
41946;SDS011;27638;42.184;24.848;2023-03-24T03:31:41;27.48;;;14.60;;
41946;SDS011;27638;42.184;24.848;2023-03-24T03:34:17;25.13;;;14.30;;
41946;SDS011;27638;42.184;24.848;2023-03-24T03:40:22;17.52;;;12.13;;
41946;SDS011;27638;42.184;24.848;2023-03-24T03:42:53;26.58;;;13.25;;
41946;SDS011;27638;42.184;24.848;2023-03-24T03:45:19;23.10;;;14.23;;
41946;SDS011;27638;42.184;24.848;2023-03-24T03:47:44;23.33;;;13.43;;
41946;SDS011;27638;42.184;24.848;2023-03-24T03:50:10;20.00;;;11.93;;
41946;SDS011;27638;42.184;24.848;2023-03-24T03:52:36;20.98;;;13.05;;
41946;SDS011;27638;42.184;24.848;2023-03-24T03:55:04;19.05;;;12.77;;
41946;SDS011;27638;42.184;24.848;2023-03-24T03:57:31;23.90;;;13.98;;
41946;SDS011;27638;42.184;24.848;2023-03-24T03:59:59;20.60;;;13.35;;
41946;SDS011;27638;42.184;24.848;2023-03-24T04:05:23;17.88;;;11.02;;
41946;SDS011;27638;42.184;24.848;2023-03-24T04:10:35;17.08;;;11.85;;
41946;SDS011;27638;42.184;24.848;2023-03-24T04:21:26;34.20;;;17.40;;
41946;SDS011;27638;42.184;24.848;2023-03-24T04:24:36;81.15;;;35.30;;
41946;SDS011;27638;42.184;24.848;2023-03-24T04:30:00;22.95;;;14.00;;
41946;SDS011;27638;42.184;24.848;2023-03-24T04:35:23;31.35;;;18.33;;
41946;SDS011;27638;42.184;24.848;2023-03-24T04:38:04;30.33;;;16.52;;
41946;SDS011;27638;42.184;24.848;2023-03-24T04:40:35;24.60;;;15.13;;
41946;SDS011;27638;42.184;24.848;2023-03-24T04:43:05;35.53;;;19.50;;
41946;SDS011;27638;42.184;24.848;2023-03-24T04:45:33;51.17;;;26.05;;
41946;SDS011;27638;42.184;24.848;2023-03-24T04:48:01;40.40;;;21.85;;
41946;SDS011;27638;42.184;24.848;2023-03-24T04:50:37;35.08;;;20.42;;
41946;SDS011;27638;42.184;24.848;2023-03-24T04:53:05;37.78;;;21.17;;
41946;SDS011;27638;42.184;24.848;2023-03-24T04:58:22;35.25;;;18.67;;
41946;SDS011;27638;42.184;24.848;2023-03-24T05:00:47;34.33;;;19.70;;
41946;SDS011;27638;42.184;24.848;2023-03-24T05:03:14;24.75;;;14.23;;
41946;SDS011;27638;42.184;24.848;2023-03-24T05:05:41;22.13;;;14.05;;
41946;SDS011;27638;42.184;24.848;2023-03-24T05:08:08;23.40;;;13.90;;
41946;SDS011;27638;42.184;24.848;2023-03-24T05:10:35;23.00;;;13.05;;
41946;SDS011;27638;42.184;24.848;2023-03-24T05:13:01;23.08;;;13.05;;
41946;SDS011;27638;42.184;24.848;2023-03-24T05:15:26;20.92;;;13.48;;
41946;SDS011;27638;42.184;24.848;2023-03-24T05:17:52;22.48;;;12.80;;
41946;SDS011;27638;42.184;24.848;2023-03-24T05:20:17;19.90;;;12.25;;
41946;SDS011;27638;42.184;24.848;2023-03-24T05:22:43;20.73;;;11.85;;
41946;SDS011;27638;42.184;24.848;2023-03-24T05:25:09;26.73;;;14.23;;
41946;SDS011;27638;42.184;24.848;2023-03-24T05:27:35;25.35;;;12.73;;
41946;SDS011;27638;42.184;24.848;2023-03-24T05:30:00;24.08;;;13.52;;
41946;SDS011;27638;42.184;24.848;2023-03-24T05:32:25;20.67;;;11.25;;
41946;SDS011;27638;42.184;24.848;2023-03-24T05:34:51;20.88;;;11.35;;
41946;SDS011;27638;42.184;24.848;2023-03-24T05:37:16;18.95;;;11.52;;
41946;SDS011;27638;42.184;24.848;2023-03-24T05:39:42;22.85;;;11.55;;
41946;SDS011;27638;42.184;24.848;2023-03-24T05:42:08;25.20;;;13.52;;
41946;SDS011;27638;42.184;24.848;2023-03-24T05:44:34;25.60;;;15.15;;
41946;SDS011;27638;42.184;24.848;2023-03-24T05:47:00;18.35;;;11.95;;
41946;SDS011;27638;42.184;24.848;2023-03-24T05:49:25;21.08;;;13.52;;
41946;SDS011;27638;42.184;24.848;2023-03-24T05:51:50;43.80;;;26.02;;
41946;SDS011;27638;42.184;24.848;2023-03-24T05:54:16;23.25;;;14.15;;
41946;SDS011;27638;42.184;24.848;2023-03-24T05:56:41;24.50;;;12.27;;
41946;SDS011;27638;42.184;24.848;2023-03-24T05:59:07;18.80;;;11.10;;
41946;SDS011;27638;42.184;24.848;2023-03-24T06:01:33;40.72;;;21.33;;
41946;SDS011;27638;42.184;24.848;2023-03-24T06:03:58;28.30;;;16.48;;
41946;SDS011;27638;42.184;24.848;2023-03-24T06:06:23;19.75;;;13.40;;
41946;SDS011;27638;42.184;24.848;2023-03-24T06:08:50;21.52;;;13.50;;
41946;SDS011;27638;42.184;24.848;2023-03-24T06:11:18;18.60;;;12.40;;
41946;SDS011;27638;42.184;24.848;2023-03-24T06:13:43;24.55;;;13.10;;
41946;SDS011;27638;42.184;24.848;2023-03-24T06:16:09;19.90;;;12.77;;
41946;SDS011;27638;42.184;24.848;2023-03-24T06:18:35;16.02;;;11.50;;
41946;SDS011;27638;42.184;24.848;2023-03-24T06:21:00;19.58;;;12.18;;
41946;SDS011;27638;42.184;24.848;2023-03-24T06:23:26;19.05;;;11.77;;
41946;SDS011;27638;42.184;24.848;2023-03-24T06:25:53;19.38;;;13.10;;
41946;SDS011;27638;42.184;24.848;2023-03-24T06:28:20;18.73;;;12.70;;
41946;SDS011;27638;42.184;24.848;2023-03-24T06:30:46;19.67;;;12.65;;
41946;SDS011;27638;42.184;24.848;2023-03-24T06:33:13;16.85;;;12.18;;
41946;SDS011;27638;42.184;24.848;2023-03-24T06:35:39;14.73;;;11.23;;
41946;SDS011;27638;42.184;24.848;2023-03-24T06:38:05;18.67;;;11.55;;
41946;SDS011;27638;42.184;24.848;2023-03-24T06:40:31;15.50;;;10.82;;
41946;SDS011;27638;42.184;24.848;2023-03-24T06:42:57;17.55;;;11.43;;
41946;SDS011;27638;42.184;24.848;2023-03-24T06:45:23;19.58;;;12.15;;
41946;SDS011;27638;42.184;24.848;2023-03-24T06:47:50;19.85;;;11.57;;
41946;SDS011;27638;42.184;24.848;2023-03-24T06:50:22;15.98;;;10.75;;
41946;SDS011;27638;42.184;24.848;2023-03-24T06:52:51;17.52;;;10.88;;
41946;SDS011;27638;42.184;24.848;2023-03-24T06:55:17;19.05;;;11.75;;
41946;SDS011;27638;42.184;24.848;2023-03-24T06:57:43;16.75;;;11.52;;
41946;SDS011;27638;42.184;24.848;2023-03-24T07:00:09;16.67;;;11.50;;
41946;SDS011;27638;42.184;24.848;2023-03-24T07:02:35;16.95;;;11.43;;
41946;SDS011;27638;42.184;24.848;2023-03-24T07:05:02;17.70;;;11.40;;
41946;SDS011;27638;42.184;24.848;2023-03-24T07:07:33;17.00;;;11.70;;
41946;SDS011;27638;42.184;24.848;2023-03-24T07:09:59;16.38;;;11.65;;
41946;SDS011;27638;42.184;24.848;2023-03-24T07:12:25;17.38;;;11.18;;
41946;SDS011;27638;42.184;24.848;2023-03-24T07:14:51;18.48;;;11.38;;
41946;SDS011;27638;42.184;24.848;2023-03-24T07:17:17;17.40;;;11.73;;
41946;SDS011;27638;42.184;24.848;2023-03-24T07:19:42;18.15;;;10.70;;
41946;SDS011;27638;42.184;24.848;2023-03-24T07:22:09;19.35;;;11.50;;
41946;SDS011;27638;42.184;24.848;2023-03-24T07:24:35;18.83;;;12.10;;
41946;SDS011;27638;42.184;24.848;2023-03-24T07:27:00;16.20;;;11.45;;
41946;SDS011;27638;42.184;24.848;2023-03-24T07:29:26;17.55;;;10.90;;
41946;SDS011;27638;42.184;24.848;2023-03-24T07:31:52;19.95;;;12.43;;
41946;SDS011;27638;42.184;24.848;2023-03-24T07:34:18;15.02;;;10.57;;
41946;SDS011;27638;42.184;24.848;2023-03-24T07:36:44;18.73;;;12.30;;
41946;SDS011;27638;42.184;24.848;2023-03-24T07:39:09;17.02;;;11.48;;
41946;SDS011;27638;42.184;24.848;2023-03-24T07:41:35;16.05;;;11.38;;
41946;SDS011;27638;42.184;24.848;2023-03-24T07:44:00;17.35;;;11.43;;
41946;SDS011;27638;42.184;24.848;2023-03-24T07:46:26;16.58;;;11.10;;
41946;SDS011;27638;42.184;24.848;2023-03-24T07:48:52;16.40;;;10.90;;
41946;SDS011;27638;42.184;24.848;2023-03-24T07:51:17;16.45;;;11.27;;
41946;SDS011;27638;42.184;24.848;2023-03-24T07:53:44;16.48;;;11.55;;
41946;SDS011;27638;42.184;24.848;2023-03-24T07:56:11;18.92;;;12.00;;
41946;SDS011;27638;42.184;24.848;2023-03-24T07:58:37;17.35;;;11.20;;
41946;SDS011;27638;42.184;24.848;2023-03-24T08:01:05;23.90;;;13.50;;
41946;SDS011;27638;42.184;24.848;2023-03-24T08:03:34;19.88;;;12.02;;
41946;SDS011;27638;42.184;24.848;2023-03-24T08:06:01;17.40;;;11.98;;
41946;SDS011;27638;42.184;24.848;2023-03-24T08:08:27;14.10;;;10.52;;
41946;SDS011;27638;42.184;24.848;2023-03-24T08:10:53;19.23;;;11.35;;
41946;SDS011;27638;42.184;24.848;2023-03-24T08:13:18;15.40;;;11.18;;
41946;SDS011;27638;42.184;24.848;2023-03-24T08:15:43;18.45;;;12.55;;
41946;SDS011;27638;42.184;24.848;2023-03-24T08:18:09;16.77;;;12.00;;
41946;SDS011;27638;42.184;24.848;2023-03-24T08:20:34;16.15;;;11.55;;
41946;SDS011;27638;42.184;24.848;2023-03-24T08:23:00;17.15;;;11.13;;
41946;SDS011;27638;42.184;24.848;2023-03-24T08:25:28;16.08;;;11.18;;
41946;SDS011;27638;42.184;24.848;2023-03-24T08:27:54;17.50;;;12.05;;
41946;SDS011;27638;42.184;24.848;2023-03-24T08:30:21;16.27;;;10.98;;
41946;SDS011;27638;42.184;24.848;2023-03-24T08:32:49;14.57;;;11.23;;
41946;SDS011;27638;42.184;24.848;2023-03-24T08:35:18;16.30;;;12.00;;
41946;SDS011;27638;42.184;24.848;2023-03-24T08:37:46;15.82;;;11.77;;
41946;SDS011;27638;42.184;24.848;2023-03-24T08:40:13;15.10;;;11.73;;
41946;SDS011;27638;42.184;24.848;2023-03-24T08:42:46;17.52;;;12.15;;
41946;SDS011;27638;42.184;24.848;2023-03-24T08:45:13;15.35;;;11.40;;
41946;SDS011;27638;42.184;24.848;2023-03-24T08:47:39;14.93;;;10.32;;
41946;SDS011;27638;42.184;24.848;2023-03-24T08:50:06;15.35;;;10.60;;
41946;SDS011;27638;42.184;24.848;2023-03-24T08:52:33;16.08;;;10.43;;
41946;SDS011;27638;42.184;24.848;2023-03-24T08:54:59;13.52;;;10.68;;
41946;SDS011;27638;42.184;24.848;2023-03-24T08:57:25;14.60;;;10.48;;
41946;SDS011;27638;42.184;24.848;2023-03-24T08:59:50;15.48;;;9.93;;
41946;SDS011;27638;42.184;24.848;2023-03-24T09:02:16;15.90;;;10.50;;
41946;SDS011;27638;42.184;24.848;2023-03-24T09:04:41;14.35;;;10.48;;
41946;SDS011;27638;42.184;24.848;2023-03-24T09:07:08;13.98;;;10.35;;
41946;SDS011;27638;42.184;24.848;2023-03-24T09:09:34;13.52;;;9.70;;
41946;SDS011;27638;42.184;24.848;2023-03-24T09:12:00;11.20;;;9.40;;
41946;SDS011;27638;42.184;24.848;2023-03-24T09:14:25;13.88;;;9.57;;
41946;SDS011;27638;42.184;24.848;2023-03-24T09:16:51;13.43;;;9.48;;
41946;SDS011;27638;42.184;24.848;2023-03-24T09:19:16;14.27;;;9.50;;
41946;SDS011;27638;42.184;24.848;2023-03-24T09:21:45;11.45;;;8.35;;
41946;SDS011;27638;42.184;24.848;2023-03-24T09:24:12;11.98;;;8.38;;
41946;SDS011;27638;42.184;24.848;2023-03-24T09:26:38;12.05;;;8.90;;
41946;SDS011;27638;42.184;24.848;2023-03-24T09:29:03;12.77;;;9.05;;
41946;SDS011;27638;42.184;24.848;2023-03-24T09:31:29;12.50;;;9.02;;
41946;SDS011;27638;42.184;24.848;2023-03-24T09:33:54;11.95;;;9.70;;
41946;SDS011;27638;42.184;24.848;2023-03-24T09:36:20;13.20;;;8.90;;
41946;SDS011;27638;42.184;24.848;2023-03-24T09:38:45;15.32;;;9.30;;
41946;SDS011;27638;42.184;24.848;2023-03-24T09:41:16;11.15;;;8.38;;
41946;SDS011;27638;42.184;24.848;2023-03-24T09:43:48;12.60;;;8.38;;
41946;SDS011;27638;42.184;24.848;2023-03-24T09:46:26;10.27;;;8.50;;
41946;SDS011;27638;42.184;24.848;2023-03-24T09:48:57;13.48;;;9.02;;
41946;SDS011;27638;42.184;24.848;2023-03-24T09:51:33;11.13;;;8.63;;
41946;SDS011;27638;42.184;24.848;2023-03-24T09:56:32;14.50;;;9.80;;
41946;SDS011;27638;42.184;24.848;2023-03-24T10:01:32;16.00;;;9.77;;
41946;SDS011;27638;42.184;24.848;2023-03-24T10:04:00;15.23;;;10.02;;
41946;SDS011;27638;42.184;24.848;2023-03-24T10:06:31;14.77;;;9.27;;
41946;SDS011;27638;42.184;24.848;2023-03-24T10:14:36;13.95;;;8.85;;
41946;SDS011;27638;42.184;24.848;2023-03-24T10:17:17;14.05;;;9.23;;
41946;SDS011;27638;42.184;24.848;2023-03-24T10:24:41;12.05;;;8.98;;
41946;SDS011;27638;42.184;24.848;2023-03-24T10:27:36;15.25;;;8.70;;
41946;SDS011;27638;42.184;24.848;2023-03-24T10:30:31;11.40;;;8.30;;
41946;SDS011;27638;42.184;24.848;2023-03-24T10:32:57;12.57;;;9.45;;
41946;SDS011;27638;42.184;24.848;2023-03-24T10:37:55;12.40;;;8.70;;
41946;SDS011;27638;42.184;24.848;2023-03-24T10:40:31;13.25;;;9.40;;
41946;SDS011;27638;42.184;24.848;2023-03-24T10:42:57;15.20;;;8.77;;
41946;SDS011;27638;42.184;24.848;2023-03-24T10:45:27;14.05;;;9.07;;
41946;SDS011;27638;42.184;24.848;2023-03-24T10:47:56;14.27;;;9.55;;
41946;SDS011;27638;42.184;24.848;2023-03-24T10:50:24;15.43;;;9.32;;
41946;SDS011;27638;42.184;24.848;2023-03-24T10:52:52;14.43;;;9.73;;
41946;SDS011;27638;42.184;24.848;2023-03-24T10:55:20;13.20;;;9.55;;
41946;SDS011;27638;42.184;24.848;2023-03-24T10:57:49;13.38;;;9.75;;
41946;SDS011;27638;42.184;24.848;2023-03-24T11:03:11;15.25;;;10.15;;
41946;SDS011;27638;42.184;24.848;2023-03-24T11:05:41;14.90;;;9.43;;
41946;SDS011;27638;42.184;24.848;2023-03-24T11:10:46;14.30;;;9.63;;
41946;SDS011;27638;42.184;24.848;2023-03-24T11:13:16;14.30;;;9.70;;
41946;SDS011;27638;42.184;24.848;2023-03-24T11:16:14;12.18;;;9.55;;
41946;SDS011;27638;42.184;24.848;2023-03-24T11:18:57;13.18;;;9.27;;
41946;SDS011;27638;42.184;24.848;2023-03-24T11:21:27;12.02;;;9.60;;
41946;SDS011;27638;42.184;24.848;2023-03-24T11:23:56;12.48;;;9.13;;
41946;SDS011;27638;42.184;24.848;2023-03-24T11:29:00;11.95;;;8.52;;
41946;SDS011;27638;42.184;24.848;2023-03-24T11:34:36;12.30;;;8.65;;
41946;SDS011;27638;42.184;24.848;2023-03-24T11:49:38;14.93;;;11.85;;
41946;SDS011;27638;42.184;24.848;2023-03-24T11:52:24;13.35;;;10.43;;
41946;SDS011;27638;42.184;24.848;2023-03-24T11:54:54;11.80;;;9.43;;
41946;SDS011;27638;42.184;24.848;2023-03-24T11:57:30;10.45;;;7.80;;
41946;SDS011;27638;42.184;24.848;2023-03-24T12:00:13;10.45;;;7.68;;
41946;SDS011;27638;42.184;24.848;2023-03-24T12:08:03;8.02;;;6.28;;
41946;SDS011;27638;42.184;24.848;2023-03-24T12:13:29;8.55;;;6.22;;
41946;SDS011;27638;42.184;24.848;2023-03-24T12:26:41;9.45;;;7.10;;
41946;SDS011;27638;42.184;24.848;2023-03-24T12:39:29;7.07;;;5.60;;
41946;SDS011;27638;42.184;24.848;2023-03-24T12:50:17;6.32;;;4.85;;
41946;SDS011;27638;42.184;24.848;2023-03-24T13:03:59;5.85;;;4.90;;
41946;SDS011;27638;42.184;24.848;2023-03-24T13:09:51;7.82;;;5.07;;
41946;SDS011;27638;42.184;24.848;2023-03-24T13:12:39;5.07;;;4.18;;
41946;SDS011;27638;42.184;24.848;2023-03-24T13:19:56;7.50;;;6.70;;
41946;SDS011;27638;42.184;24.848;2023-03-24T13:22:24;5.13;;;3.40;;
41946;SDS011;27638;42.184;24.848;2023-03-24T13:24:51;5.03;;;3.42;;
41946;SDS011;27638;42.184;24.848;2023-03-24T13:27:22;4.43;;;3.55;;
41946;SDS011;27638;42.184;24.848;2023-03-24T13:33:01;5.68;;;3.85;;
41946;SDS011;27638;42.184;24.848;2023-03-24T13:39:22;4.85;;;3.92;;
41946;SDS011;27638;42.184;24.848;2023-03-24T13:41:52;5.03;;;3.35;;
41946;SDS011;27638;42.184;24.848;2023-03-24T13:44:38;6.90;;;3.58;;
41946;SDS011;27638;42.184;24.848;2023-03-24T13:49:52;3.65;;;2.78;;
41946;SDS011;27638;42.184;24.848;2023-03-24T13:54:56;3.40;;;2.78;;
41946;SDS011;27638;42.184;24.848;2023-03-24T13:57:24;3.50;;;2.70;;
41946;SDS011;27638;42.184;24.848;2023-03-24T14:07:52;4.25;;;2.88;;
41946;SDS011;27638;42.184;24.848;2023-03-24T14:10:41;2.95;;;2.70;;
41946;SDS011;27638;42.184;24.848;2023-03-24T14:15:43;3.05;;;2.65;;
41946;SDS011;27638;42.184;24.848;2023-03-24T14:18:13;3.30;;;2.20;;
41946;SDS011;27638;42.184;24.848;2023-03-24T14:20:41;2.80;;;2.47;;
41946;SDS011;27638;42.184;24.848;2023-03-24T14:23:42;4.30;;;2.70;;
41946;SDS011;27638;42.184;24.848;2023-03-24T14:28:54;3.60;;;2.10;;
41946;SDS011;27638;42.184;24.848;2023-03-24T14:31:30;2.42;;;2.20;;
41946;SDS011;27638;42.184;24.848;2023-03-24T14:34:00;3.45;;;2.60;;
41946;SDS011;27638;42.184;24.848;2023-03-24T14:36:30;3.53;;;2.80;;
41946;SDS011;27638;42.184;24.848;2023-03-24T14:41:51;4.53;;;2.50;;
41946;SDS011;27638;42.184;24.848;2023-03-24T14:47:32;2.97;;;2.30;;
41946;SDS011;27638;42.184;24.848;2023-03-24T14:49:58;2.85;;;2.55;;
41946;SDS011;27638;42.184;24.848;2023-03-24T14:52:31;3.20;;;2.40;;
41946;SDS011;27638;42.184;24.848;2023-03-24T14:54:59;3.58;;;2.72;;
41946;SDS011;27638;42.184;24.848;2023-03-24T14:57:27;2.50;;;2.30;;
41946;SDS011;27638;42.184;24.848;2023-03-24T15:02:49;4.00;;;2.45;;
41946;SDS011;27638;42.184;24.848;2023-03-24T15:05:17;3.22;;;2.10;;
41946;SDS011;27638;42.184;24.848;2023-03-24T15:08:16;2.47;;;2.03;;
41946;SDS011;27638;42.184;24.848;2023-03-24T15:10:55;3.17;;;2.08;;
41946;SDS011;27638;42.184;24.848;2023-03-24T15:13:38;3.25;;;2.00;;
41946;SDS011;27638;42.184;24.848;2023-03-24T15:18:33;2.53;;;1.95;;
41946;SDS011;27638;42.184;24.848;2023-03-24T15:21:00;2.38;;;1.98;;
41946;SDS011;27638;42.184;24.848;2023-03-24T15:23:27;2.88;;;2.20;;
41946;SDS011;27638;42.184;24.848;2023-03-24T15:25:52;3.72;;;2.42;;
41946;SDS011;27638;42.184;24.848;2023-03-24T15:28:23;2.40;;;2.00;;
41946;SDS011;27638;42.184;24.848;2023-03-24T15:30:54;2.15;;;1.92;;
41946;SDS011;27638;42.184;24.848;2023-03-24T15:33:23;2.70;;;2.28;;
41946;SDS011;27638;42.184;24.848;2023-03-24T15:35:54;3.03;;;1.80;;
41946;SDS011;27638;42.184;24.848;2023-03-24T15:38:26;3.58;;;2.03;;
41946;SDS011;27638;42.184;24.848;2023-03-24T15:41:00;2.83;;;2.30;;
41946;SDS011;27638;42.184;24.848;2023-03-24T15:43:40;2.67;;;2.10;;
41946;SDS011;27638;42.184;24.848;2023-03-24T15:46:18;2.42;;;2.13;;
41946;SDS011;27638;42.184;24.848;2023-03-24T15:48:44;3.25;;;2.40;;
41946;SDS011;27638;42.184;24.848;2023-03-24T15:51:10;3.13;;;1.90;;
41946;SDS011;27638;42.184;24.848;2023-03-24T15:53:56;4.72;;;2.90;;
41946;SDS011;27638;42.184;24.848;2023-03-24T15:56:27;4.18;;;2.40;;
41946;SDS011;27638;42.184;24.848;2023-03-24T16:01:26;3.63;;;2.30;;
41946;SDS011;27638;42.184;24.848;2023-03-24T16:03:59;2.40;;;2.00;;
41946;SDS011;27638;42.184;24.848;2023-03-24T16:06:29;3.05;;;2.30;;
41946;SDS011;27638;42.184;24.848;2023-03-24T16:09:11;2.90;;;2.00;;
41946;SDS011;27638;42.184;24.848;2023-03-24T16:11:38;2.67;;;2.33;;
41946;SDS011;27638;42.184;24.848;2023-03-24T16:16:47;4.28;;;2.88;;
41946;SDS011;27638;42.184;24.848;2023-03-24T16:19:16;3.95;;;2.70;;
41946;SDS011;27638;42.184;24.848;2023-03-24T16:21:41;4.57;;;3.17;;
41946;SDS011;27638;42.184;24.848;2023-03-24T16:24:07;3.65;;;3.08;;
41946;SDS011;27638;42.184;24.848;2023-03-24T16:26:32;2.92;;;2.53;;
41946;SDS011;27638;42.184;24.848;2023-03-24T16:28:59;4.95;;;3.58;;
41946;SDS011;27638;42.184;24.848;2023-03-24T16:31:37;5.78;;;3.58;;
41946;SDS011;27638;42.184;24.848;2023-03-24T16:34:02;4.88;;;3.60;;
41946;SDS011;27638;42.184;24.848;2023-03-24T16:36:28;6.28;;;3.50;;
41946;SDS011;27638;42.184;24.848;2023-03-24T16:38:54;7.38;;;3.60;;
41946;SDS011;27638;42.184;24.848;2023-03-24T16:41:21;4.68;;;3.40;;
41946;SDS011;27638;42.184;24.848;2023-03-24T16:43:47;4.18;;;3.08;;
41946;SDS011;27638;42.184;24.848;2023-03-24T16:48:40;3.75;;;3.45;;
41946;SDS011;27638;42.184;24.848;2023-03-24T16:51:09;4.18;;;3.22;;
41946;SDS011;27638;42.184;24.848;2023-03-24T16:53:37;6.80;;;3.40;;
41946;SDS011;27638;42.184;24.848;2023-03-24T16:56:02;7.65;;;4.78;;
41946;SDS011;27638;42.184;24.848;2023-03-24T16:58:28;7.95;;;5.50;;
41946;SDS011;27638;42.184;24.848;2023-03-24T17:00:54;12.07;;;7.15;;
41946;SDS011;27638;42.184;24.848;2023-03-24T17:03:22;16.38;;;8.80;;
41946;SDS011;27638;42.184;24.848;2023-03-24T17:05:49;15.98;;;9.38;;
41946;SDS011;27638;42.184;24.848;2023-03-24T17:08:15;18.45;;;10.00;;
41946;SDS011;27638;42.184;24.848;2023-03-24T17:10:42;13.63;;;8.32;;
41946;SDS011;27638;42.184;24.848;2023-03-24T17:13:20;11.85;;;7.97;;
41946;SDS011;27638;42.184;24.848;2023-03-24T17:15:48;10.93;;;6.78;;
41946;SDS011;27638;42.184;24.848;2023-03-24T17:18:13;11.50;;;7.30;;
41946;SDS011;27638;42.184;24.848;2023-03-24T17:20:39;13.90;;;8.35;;
41946;SDS011;27638;42.184;24.848;2023-03-24T17:23:05;13.93;;;7.47;;
41946;SDS011;27638;42.184;24.848;2023-03-24T17:25:32;10.32;;;6.45;;
41946;SDS011;27638;42.184;24.848;2023-03-24T17:27:57;10.23;;;7.03;;
41946;SDS011;27638;42.184;24.848;2023-03-24T17:30:23;11.63;;;7.53;;
41946;SDS011;27638;42.184;24.848;2023-03-24T17:32:50;9.25;;;6.25;;
41946;SDS011;27638;42.184;24.848;2023-03-24T17:35:18;7.80;;;5.57;;
41946;SDS011;27638;42.184;24.848;2023-03-24T17:37:44;8.55;;;5.47;;
41946;SDS011;27638;42.184;24.848;2023-03-24T17:40:11;5.47;;;4.45;;
41946;SDS011;27638;42.184;24.848;2023-03-24T17:42:38;9.98;;;4.60;;
41946;SDS011;27638;42.184;24.848;2023-03-24T17:45:05;8.25;;;5.18;;
41946;SDS011;27638;42.184;24.848;2023-03-24T17:47:32;8.30;;;5.53;;
41946;SDS011;27638;42.184;24.848;2023-03-24T17:49:58;10.30;;;5.40;;